Tetonia, Idaho
Current Conditions -  °F | °C
As of 10:56 PM on Thursday 18 Dec 2014 (Local Time) from KDIJ Reporting Station
Overcast Overcast  
Wind Chill: 22°   Ceiling: 2600
Heat Index: 30°   Visibility: 10mi
Dew Point: 23°   Wind: 9mph
Humidity: 75%   Direction: 180°S
Pressure: 30.13"   Gusts: NA
Location:  43.82°N, 111.16°W
Report Text: KDIJ 190556Z AUTO 18008KT 10SM OVC026 M01/M05 A3013 RMK AO2 55000 60000 T10111050 11011 21050 400051050 SLP201
Loading
Personal Weather Stations






























Interactive Weather Map New forecast layout! Learn more

10-Day Weather Forecast

Advertisements
Track Severe Weather on mobile